sensor_id;sensor_type;location;lat;lon;timestamp;pressure;altitude;pressure_sealevel;temperature;humidity
70374;BME280;57792;49.198;7.890;2022-09-23T00:00:38;99047.31;;;4.90;71.97
70374;BME280;57792;49.198;7.890;2022-09-23T00:01:39;99036.78;;;4.88;72.36
70374;BME280;57792;49.198;7.890;2022-09-23T00:02:40;99057.00;;;4.91;72.36
70374;BME280;57792;49.198;7.890;2022-09-23T00:03:44;99058.69;;;4.95;71.64
70374;BME280;57792;49.198;7.890;2022-09-23T00:04:45;99056.13;;;4.90;71.87
70374;BME280;57792;49.198;7.890;2022-09-23T00:06:05;99051.84;;;4.82;73.25
70374;BME280;57792;49.198;7.890;2022-09-23T00:07:07;99055.53;;;4.68;73.15
70374;BME280;57792;49.198;7.890;2022-09-23T00:08:10;99053.81;;;4.66;73.50
70374;BME280;57792;49.198;7.890;2022-09-23T00:09:11;99054.56;;;4.76;72.17
70374;BME280;57792;49.198;7.890;2022-09-23T00:10:11;99058.91;;;4.81;71.99
70374;BME280;57792;49.198;7.890;2022-09-23T00:11:14;99050.16;;;4.78;72.62
70374;BME280;57792;49.198;7.890;2022-09-23T00:12:15;99041.38;;;4.74;72.19
70374;BME280;57792;49.198;7.890;2022-09-23T00:13:17;99056.25;;;4.81;71.85
70374;BME280;57792;49.198;7.890;2022-09-23T00:14:17;99055.47;;;4.73;72.48
70374;BME280;57792;49.198;7.890;2022-09-23T00:15:18;99053.69;;;4.75;72.37
70374;BME280;57792;49.198;7.890;2022-09-23T00:16:24;99042.38;;;4.65;72.66
70374;BME280;57792;49.198;7.890;2022-09-23T00:17:24;99034.50;;;4.61;72.50
70374;BME280;57792;49.198;7.890;2022-09-23T00:18:25;99051.16;;;4.67;71.92
70374;BME280;57792;49.198;7.890;2022-09-23T00:19:25;99046.72;;;4.69;71.54
70374;BME280;57792;49.198;7.890;2022-09-23T00:20:26;99038.19;;;4.49;73.00
70374;BME280;57792;49.198;7.890;2022-09-23T00:21:27;99046.88;;;4.57;72.88
70374;BME280;57792;49.198;7.890;2022-09-23T00:22:28;99052.06;;;4.63;72.44
70374;BME280;57792;49.198;7.890;2022-09-23T00:23:28;99042.50;;;4.55;72.67
70374;BME280;57792;49.198;7.890;2022-09-23T00:24:29;99035.53;;;4.49;72.81
70374;BME280;57792;49.198;7.890;2022-09-23T00:25:31;99046.91;;;4.54;72.65
70374;BME280;57792;49.198;7.890;2022-09-23T00:26:31;99046.84;;;4.59;72.54
70374;BME280;57792;49.198;7.890;2022-09-23T00:27:32;99037.25;;;4.52;73.58
70374;BME280;57792;49.198;7.890;2022-09-23T00:28:33;99048.63;;;4.57;72.56
70374;BME280;57792;49.198;7.890;2022-09-23T00:29:34;99048.63;;;4.57;72.05
70374;BME280;57792;49.198;7.890;2022-09-23T00:30:36;99030.31;;;4.45;72.66
70374;BME280;57792;49.198;7.890;2022-09-23T00:31:36;99044.34;;;4.50;72.24
70374;BME280;57792;49.198;7.890;2022-09-23T00:32:36;99044.34;;;4.50;71.95
70374;BME280;57792;49.198;7.890;2022-09-23T00:33:37;99047.06;;;4.44;72.64
70374;BME280;57792;49.198;7.890;2022-09-23T00:34:39;99042.75;;;4.35;72.96
70374;BME280;57792;49.198;7.890;2022-09-23T00:35:42;99042.84;;;4.24;74.32
70374;BME280;57792;49.198;7.890;2022-09-23T00:36:43;99041.00;;;4.34;72.42
70374;BME280;57792;49.198;7.890;2022-09-23T00:37:43;99029.66;;;4.24;73.17
70374;BME280;57792;49.198;7.890;2022-09-23T00:38:44;99041.03;;;4.31;73.03
70374;BME280;57792;49.198;7.890;2022-09-23T00:39:45;99032.22;;;4.30;72.32
70374;BME280;57792;49.198;7.890;2022-09-23T00:40:45;99040.94;;;4.38;72.73
70374;BME280;57792;49.198;7.890;2022-09-23T00:41:46;99033.91;;;4.39;72.51
70374;BME280;57792;49.198;7.890;2022-09-23T00:42:47;99036.59;;;4.34;73.32
70374;BME280;57792;49.198;7.890;2022-09-23T00:43:54;99040.16;;;4.30;73.25
70374;BME280;57792;49.198;7.890;2022-09-23T00:44:57;99019.22;;;4.15;74.34
70374;BME280;57792;49.198;7.890;2022-09-23T00:45:57;99032.25;;;4.27;74.16
70374;BME280;57792;49.198;7.890;2022-09-23T00:46:58;99022.63;;;4.25;72.82
70374;BME280;57792;49.198;7.890;2022-09-23T00:47:59;99038.28;;;4.42;72.26
70374;BME280;57792;49.198;7.890;2022-09-23T00:49:05;99039.16;;;4.42;73.13
70374;BME280;57792;49.198;7.890;2022-09-23T00:51:16;99030.38;;;4.38;73.25
70374;BME280;57792;49.198;7.890;2022-09-23T00:52:22;99036.53;;;4.39;73.48
70374;BME280;57792;49.198;7.890;2022-09-23T00:53:23;99029.56;;;4.33;73.31
70374;BME280;57792;49.198;7.890;2022-09-23T00:54:26;99033.03;;;4.38;72.95
70374;BME280;57792;49.198;7.890;2022-09-23T00:55:49;99035.75;;;4.29;73.25
70374;BME280;57792;49.198;7.890;2022-09-23T00:56:52;99035.75;;;4.29;72.80
70374;BME280;57792;49.198;7.890;2022-09-23T00:57:54;99030.41;;;4.37;72.48
70374;BME280;57792;49.198;7.890;2022-09-23T00:58:55;99012.19;;;4.16;73.26
70374;BME280;57792;49.198;7.890;2022-09-23T00:59:56;99026.94;;;4.32;72.26
70374;BME280;57792;49.198;7.890;2022-09-23T01:01:03;99028.69;;;4.33;73.38
70374;BME280;57792;49.198;7.890;2022-09-23T01:02:04;99018.16;;;4.31;72.99
70374;BME280;57792;49.198;7.890;2022-09-23T01:03:05;99019.03;;;4.30;72.48
70374;BME280;57792;49.198;7.890;2022-09-23T01:04:06;99022.50;;;4.35;72.58
70374;BME280;57792;49.198;7.890;2022-09-23T01:05:07;99024.28;;;4.32;72.51
70374;BME280;57792;49.198;7.890;2022-09-23T01:06:09;99008.44;;;4.33;71.73
70374;BME280;57792;49.198;7.890;2022-09-23T01:07:09;99023.38;;;4.36;72.67
70374;BME280;57792;49.198;7.890;2022-09-23T01:08:11;99026.84;;;4.41;72.03
70374;BME280;57792;49.198;7.890;2022-09-23T01:09:12;99016.34;;;4.35;71.91
70374;BME280;57792;49.198;7.890;2022-09-23T01:10:14;99025.22;;;4.28;73.11
70374;BME280;57792;49.198;7.890;2022-09-23T01:15:24;99020.91;;;4.19;72.99
70374;BME280;57792;49.198;7.890;2022-09-23T01:17:43;99006.88;;;4.17;72.51
70374;BME280;57792;49.198;7.890;2022-09-23T01:18:56;99030.63;;;4.17;73.47
70374;BME280;57792;49.198;7.890;2022-09-23T01:21:55;99018.47;;;4.02;73.91
70374;BME280;57792;49.198;7.890;2022-09-23T01:27:13;99015.00;;;3.97;73.87
70374;BME280;57792;49.198;7.890;2022-09-23T01:28:53;99017.72;;;3.85;74.58
70374;BME280;57792;49.198;7.890;2022-09-23T01:30:16;99015.94;;;3.90;74.26
70374;BME280;57792;49.198;7.890;2022-09-23T01:32:57;99016.09;;;3.75;74.11
70374;BME280;57792;49.198;7.890;2022-09-23T01:34:24;99016.13;;;3.69;74.47
70374;BME280;57792;49.198;7.890;2022-09-23T01:35:29;99015.25;;;3.70;73.58
70374;BME280;57792;49.198;7.890;2022-09-23T01:36:40;98991.53;;;3.70;73.53
70374;BME280;57792;49.198;7.890;2022-09-23T01:38:55;99010.78;;;3.77;73.40
70374;BME280;57792;49.198;7.890;2022-09-23T01:41:31;99010.00;;;3.68;74.77
70374;BME280;57792;49.198;7.890;2022-09-23T01:42:45;99011.75;;;3.68;74.28
70374;BME280;57792;49.198;7.890;2022-09-23T01:44:02;98996.88;;;3.59;74.99
70374;BME280;57792;49.198;7.890;2022-09-23T01:45:09;99008.25;;;3.67;74.18
70374;BME280;57792;49.198;7.890;2022-09-23T01:46:25;99009.22;;;3.54;75.90
70374;BME280;57792;49.198;7.890;2022-09-23T01:47:31;99004.75;;;3.65;74.81
70374;BME280;57792;49.198;7.890;2022-09-23T01:48:43;99003.78;;;3.74;74.91
70374;BME280;57792;49.198;7.890;2022-09-23T01:51:06;99004.69;;;3.73;74.71
70374;BME280;57792;49.198;7.890;2022-09-23T01:52:15;98994.16;;;3.68;73.97
70374;BME280;57792;49.198;7.890;2022-09-23T01:53:35;99002.88;;;3.77;74.18
70374;BME280;57792;49.198;7.890;2022-09-23T01:54:48;98996.69;;;3.81;73.44
70374;BME280;57792;49.198;7.890;2022-09-23T01:55:53;99003.75;;;3.79;73.74
70374;BME280;57792;49.198;7.890;2022-09-23T01:57:13;98995.88;;;3.72;74.14
70374;BME280;57792;49.198;7.890;2022-09-23T01:58:28;98989.84;;;3.61;74.77
70374;BME280;57792;49.198;7.890;2022-09-23T02:00:03;99002.25;;;3.52;76.05
70374;BME280;57792;49.198;7.890;2022-09-23T02:01:06;98992.63;;;3.45;76.13
70374;BME280;57792;49.198;7.890;2022-09-23T02:02:22;99000.50;;;3.49;75.09
70374;BME280;57792;49.198;7.890;2022-09-23T02:03:38;98997.16;;;3.29;76.59
70374;BME280;57792;49.198;7.890;2022-09-23T02:04:48;99001.41;;;3.47;75.10
70374;BME280;57792;49.198;7.890;2022-09-23T02:05:55;99000.50;;;3.51;74.89
70374;BME280;57792;49.198;7.890;2022-09-23T02:07:02;99003.94;;;3.56;74.61
70374;BME280;57792;49.198;7.890;2022-09-23T02:08:17;99003.94;;;3.57;75.14
70374;BME280;57792;49.198;7.890;2022-09-23T02:09:23;99003.03;;;3.60;74.32
70374;BME280;57792;49.198;7.890;2022-09-23T02:10:35;98988.13;;;3.54;74.13
70374;BME280;57792;49.198;7.890;2022-09-23T02:11:44;98993.38;;;3.59;74.00
70374;BME280;57792;49.198;7.890;2022-09-23T02:12:46;99004.75;;;3.64;74.60
70374;BME280;57792;49.198;7.890;2022-09-23T02:14:00;98991.56;;;3.65;74.32
70374;BME280;57792;49.198;7.890;2022-09-23T02:15:13;98987.22;;;3.60;74.26
70374;BME280;57792;49.198;7.890;2022-09-23T02:17:32;99000.34;;;3.64;74.10
70374;BME280;57792;49.198;7.890;2022-09-23T02:18:58;98989.00;;;3.56;74.12
70374;BME280;57792;49.198;7.890;2022-09-23T02:20:02;98991.72;;;3.50;73.49
70374;BME280;57792;49.198;7.890;2022-09-23T02:21:05;98985.56;;;3.50;73.18
70374;BME280;57792;49.198;7.890;2022-09-23T02:22:15;98992.63;;;3.48;73.85
70374;BME280;57792;49.198;7.890;2022-09-23T02:23:49;98986.53;;;3.38;74.67
70374;BME280;57792;49.198;7.890;2022-09-23T02:24:51;98988.31;;;3.37;73.72
70374;BME280;57792;49.198;7.890;2022-09-23T02:26:05;98993.59;;;3.36;76.00
70374;BME280;57792;49.198;7.890;2022-09-23T02:27:24;98994.47;;;3.35;75.96
70374;BME280;57792;49.198;7.890;2022-09-23T02:28:55;98989.19;;;3.36;75.37
70374;BME280;57792;49.198;7.890;2022-09-23T02:30:08;98975.19;;;3.30;74.78
70374;BME280;57792;49.198;7.890;2022-09-23T02:32:11;98988.38;;;3.27;75.66
70374;BME280;57792;49.198;7.890;2022-09-23T02:36:05;98974.47;;;3.13;76.45
70374;BME280;57792;49.198;7.890;2022-09-23T02:37:14;98985.84;;;3.18;75.83
70374;BME280;57792;49.198;7.890;2022-09-23T02:38:29;98965.66;;;3.14;75.92
70374;BME280;57792;49.198;7.890;2022-09-23T02:39:38;98971.72;;;3.23;75.14
70374;BME280;57792;49.198;7.890;2022-09-23T02:42:12;98979.72;;;3.14;76.68
70374;BME280;57792;49.198;7.890;2022-09-23T02:43:24;98972.69;;;3.13;75.94
70374;BME280;57792;49.198;7.890;2022-09-23T02:44:33;98977.09;;;3.13;75.56
70374;BME280;57792;49.198;7.890;2022-09-23T02:45:33;98983.25;;;3.12;76.30
70374;BME280;57792;49.198;7.890;2022-09-23T02:46:35;98971.91;;;3.00;75.94
70374;BME280;57792;49.198;7.890;2022-09-23T02:47:37;98971.94;;;2.94;76.29
70374;BME280;57792;49.198;7.890;2022-09-23T02:49:17;98981.53;;;3.04;76.34
70374;BME280;57792;49.198;7.890;2022-09-23T02:50:19;98983.28;;;3.04;75.62
70374;BME280;57792;49.198;7.890;2022-09-23T02:51:22;98978.84;;;3.15;75.23
70374;BME280;57792;49.198;7.890;2022-09-23T02:52:27;98975.25;;;3.21;nan
70374;BME280;57792;49.198;7.890;2022-09-23T02:53:30;98973.47;;;3.24;74.97
70374;BME280;57792;49.198;7.890;2022-09-23T02:54:35;98974.34;;;3.23;75.00
70374;BME280;57792;49.198;7.890;2022-09-23T02:55:36;98973.56;;;3.17;74.96
70374;BME280;57792;49.198;7.890;2022-09-23T02:56:36;98970.84;;;3.21;74.83
70374;BME280;57792;49.198;7.890;2022-09-23T02:57:38;98969.97;;;3.21;74.71
70374;BME280;57792;49.198;7.890;2022-09-23T02:58:38;98968.22;;;3.21;74.65
70374;BME280;57792;49.198;7.890;2022-09-23T02:59:39;98977.00;;;3.22;74.76
70374;BME280;57792;49.198;7.890;2022-09-23T03:05:58;98950.72;;;3.16;74.86
70374;BME280;57792;49.198;7.890;2022-09-23T03:08:37;98968.19;;;3.24;75.15
70374;BME280;57792;49.198;7.890;2022-09-23T03:10:08;98963.03;;;3.12;75.20
70374;BME280;57792;49.198;7.890;2022-09-23T03:11:12;98964.75;;;3.18;74.00
70374;BME280;57792;49.198;7.890;2022-09-23T03:12:21;98970.91;;;3.20;74.68
70374;BME280;57792;49.198;7.890;2022-09-23T03:13:31;98961.28;;;3.14;74.30
70374;BME280;57792;49.198;7.890;2022-09-23T03:18:16;98965.00;;;2.87;75.82
70374;BME280;57792;49.198;7.890;2022-09-23T03:21:58;98962.31;;;2.92;75.63
70374;BME280;57792;49.198;7.890;2022-09-23T03:23:03;98963.16;;;2.97;74.99
70374;BME280;57792;49.198;7.890;2022-09-23T03:24:08;98951.72;;;2.99;75.43
70374;BME280;57792;49.198;7.890;2022-09-23T03:25:14;98961.31;;;3.08;74.50
70374;BME280;57792;49.198;7.890;2022-09-23T03:26:20;98952.63;;;2.95;75.18
70374;BME280;57792;49.198;7.890;2022-09-23T03:27:24;98961.38;;;2.97;75.07
70374;BME280;57792;49.198;7.890;2022-09-23T03:28:27;98962.25;;;3.01;74.79
70374;BME280;57792;49.198;7.890;2022-09-23T03:29:28;98942.09;;;2.94;75.16
70374;BME280;57792;49.198;7.890;2022-09-23T03:30:31;98967.59;;;2.89;75.72
70374;BME280;57792;49.198;7.890;2022-09-23T03:31:36;98965.00;;;2.86;76.15
70374;BME280;57792;49.198;7.890;2022-09-23T03:32:38;98968.47;;;2.88;75.62
70374;BME280;57792;49.198;7.890;2022-09-23T03:33:46;98958.84;;;2.87;75.95
70374;BME280;57792;49.198;7.890;2022-09-23T03:34:50;98951.84;;;2.83;76.41
70374;BME280;57792;49.198;7.890;2022-09-23T03:35:57;98947.38;;;2.91;75.76
70374;BME280;57792;49.198;7.890;2022-09-23T03:38:48;98954.47;;;2.87;75.39
70374;BME280;57792;49.198;7.890;2022-09-23T03:40:14;98950.09;;;2.86;75.91
70374;BME280;57792;49.198;7.890;2022-09-23T03:41:25;98948.31;;;2.87;75.52
70374;BME280;57792;49.198;7.890;2022-09-23T03:42:30;98949.16;;;2.89;75.53
70374;BME280;57792;49.198;7.890;2022-09-23T03:43:32;98956.16;;;2.90;75.15
70374;BME280;57792;49.198;7.890;2022-09-23T03:44:34;98955.34;;;2.86;75.87
70374;BME280;57792;49.198;7.890;2022-09-23T03:45:38;98938.69;;;2.83;75.19
70374;BME280;57792;49.198;7.890;2022-09-23T03:46:39;98949.22;;;2.86;75.93
70374;BME280;57792;49.198;7.890;2022-09-23T03:47:43;98950.03;;;2.88;75.80
70374;BME280;57792;49.198;7.890;2022-09-23T03:48:44;98950.97;;;2.87;75.80
70374;BME280;57792;49.198;7.890;2022-09-23T03:49:46;98953.63;;;2.79;76.04
70374;BME280;57792;49.198;7.890;2022-09-23T03:50:47;98950.16;;;2.76;75.95
70374;BME280;57792;49.198;7.890;2022-09-23T03:51:48;98939.59;;;2.77;75.53
70374;BME280;57792;49.198;7.890;2022-09-23T03:52:48;98951.00;;;2.81;75.98
70374;BME280;57792;49.198;7.890;2022-09-23T03:53:49;98944.75;;;2.89;75.14
70374;BME280;57792;49.198;7.890;2022-09-23T03:54:50;98957.00;;;2.98;74.39
70374;BME280;57792;49.198;7.890;2022-09-23T03:55:51;98948.22;;;2.99;74.49
70374;BME280;57792;49.198;7.890;2022-09-23T03:56:51;98945.59;;;2.94;74.72
70374;BME280;57792;49.198;7.890;2022-09-23T03:57:52;98934.28;;;2.86;75.43
70374;BME280;57792;49.198;7.890;2022-09-23T03:58:52;98942.19;;;2.85;75.89
70374;BME280;57792;49.198;7.890;2022-09-23T03:59:52;98954.38;;;2.98;74.41
70374;BME280;57792;49.198;7.890;2022-09-23T04:00:53;98951.72;;;2.98;74.50
70374;BME280;57792;49.198;7.890;2022-09-23T04:01:53;98953.50;;;2.94;75.54
70374;BME280;57792;49.198;7.890;2022-09-23T04:02:54;98954.38;;;2.98;75.12
70374;BME280;57792;49.198;7.890;2022-09-23T04:03:56;98948.19;;;3.03;74.97
70374;BME280;57792;49.198;7.890;2022-09-23T04:04:56;98943.78;;;3.05;74.23
70374;BME280;57792;49.198;7.890;2022-09-23T04:05:56;98945.50;;;3.11;74.65
70374;BME280;57792;49.198;7.890;2022-09-23T04:06:57;98944.66;;;3.04;74.29
70374;BME280;57792;49.198;7.890;2022-09-23T04:07:57;98925.34;;;3.05;74.57
70374;BME280;57792;49.198;7.890;2022-09-23T04:08:57;98947.25;;;3.12;74.67
70374;BME280;57792;49.198;7.890;2022-09-23T04:09:58;98927.09;;;3.06;74.26
70374;BME280;57792;49.198;7.890;2022-09-23T04:11:00;98946.31;;;3.18;74.37
70374;BME280;57792;49.198;7.890;2022-09-23T04:12:00;98930.56;;;3.10;74.15
70374;BME280;57792;49.198;7.890;2022-09-23T04:13:02;98941.06;;;3.18;74.36
70374;BME280;57792;49.198;7.890;2022-09-23T04:14:03;98945.38;;;3.20;74.10
70374;BME280;57792;49.198;7.890;2022-09-23T04:15:05;98947.19;;;3.18;74.16
70374;BME280;57792;49.198;7.890;2022-09-23T04:16:05;98921.78;;;3.10;74.56
70374;BME280;57792;49.198;7.890;2022-09-23T04:17:06;98924.50;;;3.00;74.71
70374;BME280;57792;49.198;7.890;2022-09-23T04:18:06;98934.09;;;3.09;74.62
70374;BME280;57792;49.198;7.890;2022-09-23T04:19:08;98932.34;;;3.10;74.36
70374;BME280;57792;49.198;7.890;2022-09-23T04:20:09;98939.34;;;3.12;74.34
70374;BME280;57792;49.198;7.890;2022-09-23T04:21:09;98939.31;;;3.14;74.70
70374;BME280;57792;49.198;7.890;2022-09-23T04:22:09;98945.53;;;3.05;74.98
70374;BME280;57792;49.198;7.890;2022-09-23T04:23:10;98935.91;;;2.99;74.61
70374;BME280;57792;49.198;7.890;2022-09-23T04:24:11;98949.88;;;3.11;73.88
70374;BME280;57792;49.198;7.890;2022-09-23T04:25:11;98932.34;;;3.06;74.10
70374;BME280;57792;49.198;7.890;2022-09-23T04:26:12;98942.88;;;3.06;73.99
70374;BME280;57792;49.198;7.890;2022-09-23T04:27:13;98940.28;;;3.02;74.35
70374;BME280;57792;49.198;7.890;2022-09-23T04:28:14;98933.31;;;2.96;74.34
70374;BME280;57792;49.198;7.890;2022-09-23T04:29:14;98931.53;;;3.00;73.82
70374;BME280;57792;49.198;7.890;2022-09-23T04:30:14;98939.41;;;3.03;74.58
70374;BME280;57792;49.198;7.890;2022-09-23T04:31:15;98935.94;;;2.95;74.72
70374;BME280;57792;49.198;7.890;2022-09-23T04:32:15;98941.22;;;2.95;74.66
70374;BME280;57792;49.198;7.890;2022-09-23T04:33:16;98944.75;;;2.89;75.34
70374;BME280;57792;49.198;7.890;2022-09-23T04:34:16;98937.78;;;2.85;75.37
70374;BME280;57792;49.198;7.890;2022-09-23T04:35:17;98943.00;;;2.91;74.86
70374;BME280;57792;49.198;7.890;2022-09-23T04:36:17;98936.84;;;2.91;75.31
70374;BME280;57792;49.198;7.890;2022-09-23T04:37:18;98934.22;;;2.91;75.52
70374;BME280;57792;49.198;7.890;2022-09-23T04:38:18;98939.44;;;2.97;75.49
70374;BME280;57792;49.198;7.890;2022-09-23T04:39:19;98940.28;;;3.00;74.94
70374;BME280;57792;49.198;7.890;2022-09-23T04:40:19;98939.41;;;3.00;75.26
70374;BME280;57792;49.198;7.890;2022-09-23T04:41:19;98935.06;;;2.96;74.92
70374;BME280;57792;49.198;7.890;2022-09-23T04:42:20;98937.66;;;3.00;75.00
70374;BME280;57792;49.198;7.890;2022-09-23T04:43:20;98941.16;;;3.01;74.99
70374;BME280;57792;49.198;7.890;2022-09-23T04:44:22;98934.19;;;2.97;74.96
70374;BME280;57792;49.198;7.890;2022-09-23T04:45:23;98917.66;;;2.77;75.86
70374;BME280;57792;49.198;7.890;2022-09-23T04:46:23;98922.91;;;2.80;75.69
70374;BME280;57792;49.198;7.890;2022-09-23T04:47:24;98942.09;;;2.94;75.48
70374;BME280;57792;49.198;7.890;2022-09-23T04:48:25;98949.94;;;3.01;74.77
70374;BME280;57792;49.198;7.890;2022-09-23T04:49:25;98939.41;;;3.01;75.14
70374;BME280;57792;49.198;7.890;2022-09-23T04:50:26;98945.53;;;3.05;74.98
70374;BME280;57792;49.198;7.890;2022-09-23T04:51:27;98934.22;;;2.92;75.66
70374;BME280;57792;49.198;7.890;2022-09-23T04:52:29;98947.28;;;3.04;74.72
70374;BME280;57792;49.198;7.890;2022-09-23T04:53:30;98936.78;;;3.01;74.88
70374;BME280;57792;49.198;7.890;2022-09-23T04:54:31;98940.22;;;3.10;74.79
70374;BME280;57792;49.198;7.890;2022-09-23T04:55:32;98949.06;;;3.01;75.40
70374;BME280;57792;49.198;7.890;2022-09-23T04:56:32;98945.56;;;2.99;75.42
70374;BME280;57792;49.198;7.890;2022-09-23T04:57:32;98951.72;;;3.01;74.83
70374;BME280;57792;49.198;7.890;2022-09-23T04:58:33;98945.56;;;3.02;74.67
70374;BME280;57792;49.198;7.890;2022-09-23T04:59:33;98941.16;;;3.01;74.23
70374;BME280;57792;49.198;7.890;2022-09-23T05:00:35;98945.56;;;3.00;75.31
70374;BME280;57792;49.198;7.890;2022-09-23T05:01:35;98949.16;;;2.90;75.76
70374;BME280;57792;49.198;7.890;2022-09-23T05:02:47;98952.59;;;3.01;75.34
70374;BME280;57792;49.198;7.890;2022-09-23T05:03:48;98935.94;;;2.95;74.95
70374;BME280;57792;49.198;7.890;2022-09-23T05:04:48;98944.66;;;3.03;75.82
70374;BME280;57792;49.198;7.890;2022-09-23T05:05:49;98939.38;;;3.04;75.40
70374;BME280;57792;49.198;7.890;2022-09-23T05:06:50;98941.97;;;3.14;74.82
70374;BME280;57792;49.198;7.890;2022-09-23T05:07:50;98952.53;;;3.11;74.74
70374;BME280;57792;49.198;7.890;2022-09-23T05:08:53;98946.44;;;3.01;74.84
70374;BME280;57792;49.198;7.890;2022-09-23T05:09:53;98939.41;;;3.00;74.70
70374;BME280;57792;49.198;7.890;2022-09-23T05:10:57;98950.00;;;2.95;75.31
70374;BME280;57792;49.198;7.890;2022-09-23T05:11:58;98949.16;;;2.90;74.90
70374;BME280;57792;49.198;7.890;2022-09-23T05:12:58;98949.97;;;2.98;74.48
70374;BME280;57792;49.198;7.890;2022-09-23T05:13:59;98939.44;;;2.98;74.86
70374;BME280;57792;49.198;7.890;2022-09-23T05:14:59;98956.09;;;3.02;75.04
70374;BME280;57792;49.198;7.890;2022-09-23T05:16:02;98941.19;;;2.96;74.87
70374;BME280;57792;49.198;7.890;2022-09-23T05:17:02;98949.13;;;2.93;75.45
70374;BME280;57792;49.198;7.890;2022-09-23T05:18:03;98948.19;;;3.02;74.98
70374;BME280;57792;49.198;7.890;2022-09-23T05:19:03;98956.09;;;3.00;75.48
70374;BME280;57792;49.198;7.890;2022-09-23T05:20:04;98936.88;;;2.89;75.60
70374;BME280;57792;49.198;7.890;2022-09-23T05:21:06;98951.72;;;3.01;75.14
70374;BME280;57792;49.198;7.890;2022-09-23T05:22:06;98942.97;;;2.96;75.59
70374;BME280;57792;49.198;7.890;2022-09-23T05:23:07;98951.75;;;2.96;75.40
70374;BME280;57792;49.198;7.890;2022-09-23T05:24:07;98935.09;;;2.93;74.93
70374;BME280;57792;49.198;7.890;2022-09-23T05:25:08;98949.00;;;3.13;74.48
70374;BME280;57792;49.198;7.890;2022-09-23T05:26:10;98953.41;;;3.11;75.24
70374;BME280;57792;49.198;7.890;2022-09-23T05:27:11;98946.34;;;3.15;74.52
70374;BME280;57792;49.198;7.890;2022-09-23T05:28:11;98949.84;;;3.17;75.36
70374;BME280;57792;49.198;7.890;2022-09-23T05:29:11;98951.63;;;3.12;75.39
70374;BME280;57792;49.198;7.890;2022-09-23T05:30:12;98946.34;;;3.13;74.36
70374;BME280;57792;49.198;7.890;2022-09-23T05:31:16;98947.25;;;3.12;75.15
70374;BME280;57792;49.198;7.890;2022-09-23T05:32:16;98951.69;;;3.04;74.72
70374;BME280;57792;49.198;7.890;2022-09-23T05:33:17;98943.78;;;3.04;75.01
70374;BME280;57792;49.198;7.890;2022-09-23T05:34:17;98942.03;;;3.04;74.79
70374;BME280;57792;49.198;7.890;2022-09-23T05:35:17;98939.34;;;3.09;75.00
70374;BME280;57792;49.198;7.890;2022-09-23T05:36:19;98963.06;;;3.09;75.32
70374;BME280;57792;49.198;7.890;2022-09-23T05:37:20;98947.38;;;2.92;75.74
70374;BME280;57792;49.198;7.890;2022-09-23T05:38:21;98952.63;;;2.92;75.55
70374;BME280;57792;49.198;7.890;2022-09-23T05:39:21;98950.84;;;2.99;75.26
70374;BME280;57792;49.198;7.890;2022-09-23T05:40:22;98949.03;;;3.05;75.11
70374;BME280;57792;49.198;7.890;2022-09-23T05:41:22;98953.38;;;3.13;75.13
70374;BME280;57792;49.198;7.890;2022-09-23T05:42:23;98949.91;;;3.09;75.03
70374;BME280;57792;49.198;7.890;2022-09-23T05:43:24;98960.38;;;3.17;75.66
70374;BME280;57792;49.198;7.890;2022-09-23T05:44:25;98957.66;;;3.23;74.85
70374;BME280;57792;49.198;7.890;2022-09-23T05:45:25;98950.63;;;3.25;74.72
70374;BME280;57792;49.198;7.890;2022-09-23T05:46:28;98953.25;;;3.28;74.87
70374;BME280;57792;49.198;7.890;2022-09-23T05:47:29;98944.47;;;3.26;75.02
70374;BME280;57792;49.198;7.890;2022-09-23T05:48:30;98943.63;;;3.21;74.92
70374;BME280;57792;49.198;7.890;2022-09-23T05:49:30;98960.22;;;3.33;74.97
70374;BME280;57792;49.198;7.890;2022-09-23T05:50:31;98958.50;;;3.29;74.72
70374;BME280;57792;49.198;7.890;2022-09-23T05:51:32;98955.81;;;3.35;74.90
70374;BME280;57792;49.198;7.890;2022-09-23T05:52:33;98950.56;;;3.34;74.63
70374;BME280;57792;49.198;7.890;2022-09-23T05:53:34;98953.16;;;3.38;74.76
70374;BME280;57792;49.198;7.890;2022-09-23T05:54:35;98963.72;;;3.34;75.12
70374;BME280;57792;49.198;7.890;2022-09-23T05:55:36;98956.69;;;3.36;74.85
70374;BME280;57792;49.198;7.890;2022-09-23T05:56:37;98937.44;;;3.28;74.80
70374;BME280;57792;49.198;7.890;2022-09-23T05:57:37;98958.50;;;3.28;75.48
70374;BME280;57792;49.198;7.890;2022-09-23T05:58:38;98951.66;;;3.09;76.31
70374;BME280;57792;49.198;7.890;2022-09-23T05:59:38;98960.31;;;3.21;76.53
70374;BME280;57792;49.198;7.890;2022-09-23T06:00:39;98960.19;;;3.36;75.24
70374;BME280;57792;49.198;7.890;2022-09-23T06:01:40;98952.31;;;3.35;75.38
70374;BME280;57792;49.198;7.890;2022-09-23T06:02:40;98961.03;;;3.43;75.24
70374;BME280;57792;49.198;7.890;2022-09-23T06:03:40;98947.84;;;3.43;74.63
70374;BME280;57792;49.198;7.890;2022-09-23T06:04:41;98970.50;;;3.61;74.72
70374;BME280;57792;49.198;7.890;2022-09-23T06:05:42;98958.19;;;3.61;74.48
70374;BME280;57792;49.198;7.890;2022-09-23T06:06:42;98959.97;;;3.61;75.31
70374;BME280;57792;49.198;7.890;2022-09-23T06:07:42;98942.81;;;3.19;76.53
70374;BME280;57792;49.198;7.890;2022-09-23T06:08:45;98953.22;;;3.29;76.15
70374;BME280;57792;49.198;7.890;2022-09-23T06:09:45;98962.78;;;3.44;75.72
70374;BME280;57792;49.198;7.890;2022-09-23T06:10:46;98957.44;;;3.50;75.70
70374;BME280;57792;49.198;7.890;2022-09-23T06:11:47;98958.16;;;3.64;74.88
70374;BME280;57792;49.198;7.890;2022-09-23T06:12:49;98953.72;;;3.71;74.47
70374;BME280;57792;49.198;7.890;2022-09-23T06:13:54;98957.06;;;3.85;74.65
70374;BME280;57792;49.198;7.890;2022-09-23T06:14:55;98957.03;;;3.88;74.93
70374;BME280;57792;49.198;7.890;2022-09-23T06:15:58;98955.38;;;3.81;74.71
70374;BME280;57792;49.198;7.890;2022-09-23T06:16:58;98957.97;;;3.84;74.54
70374;BME280;57792;49.198;7.890;2022-09-23T06:17:59;98956.13;;;3.94;74.86
70374;BME280;57792;49.198;7.890;2022-09-23T06:18:59;98955.19;;;3.99;74.58
70374;BME280;57792;49.198;7.890;2022-09-23T06:20:04;98956.84;;;4.08;74.36
70374;BME280;57792;49.198;7.890;2022-09-23T06:21:05;98954.13;;;4.16;74.32
70374;BME280;57792;49.198;7.890;2022-09-23T06:22:06;98940.13;;;4.09;74.50